createdAt,value
2017-10-21T00:02:02.944Z,20.27
2017-10-21T00:04:30.813Z,20.80
2017-10-21T00:06:58.402Z,20.47
2017-10-21T00:09:26.282Z,19.40
2017-10-21T00:11:53.901Z,21.33
2017-10-21T00:14:21.493Z,19.20
2017-10-21T00:16:49.114Z,18.73
2017-10-21T00:19:16.710Z,19.80
2017-10-21T00:21:44.296Z,19.50
2017-10-21T00:24:11.916Z,19.03
2017-10-21T00:26:39.821Z,18.97
2017-10-21T00:29:07.457Z,19.00
2017-10-21T00:31:35.059Z,20.20
2017-10-21T00:34:02.654Z,19.13
2017-10-21T00:36:30.271Z,19.23
2017-10-21T00:38:57.845Z,18.37
2017-10-21T00:41:25.495Z,17.93
2017-10-21T00:43:53.085Z,18.93
2017-10-21T00:46:20.696Z,18.80
2017-10-21T00:48:48.308Z,19.20
2017-10-21T00:51:16.144Z,18.10
2017-10-21T00:53:43.769Z,17.57
2017-10-21T00:56:11.366Z,17.57
2017-10-21T00:58:38.968Z,17.57
2017-10-21T01:01:06.633Z,19.73
2017-10-21T01:03:34.225Z,17.30
2017-10-21T01:06:01.853Z,15.93
2017-10-21T01:08:29.441Z,17.40
2017-10-21T01:10:57.025Z,15.43
2017-10-21T01:13:24.643Z,17.40
2017-10-21T01:15:52.573Z,16.57
2017-10-21T01:18:20.200Z,17.27
2017-10-21T01:20:47.790Z,16.10
2017-10-21T01:23:15.377Z,15.83
2017-10-21T01:25:42.992Z,17.33
2017-10-21T01:28:10.593Z,16.20
2017-10-21T01:30:38.223Z,15.43
2017-10-21T01:33:05.813Z,16.00
2017-10-21T01:35:33.397Z,16.07
2017-10-21T01:38:01.028Z,16.00
2017-10-21T01:40:28.893Z,16.70
2017-10-21T01:42:56.517Z,15.80
2017-10-21T01:45:24.110Z,16.33
2017-10-21T01:47:51.985Z,17.07
2017-10-21T01:50:19.599Z,16.37
2017-10-21T01:52:49.456Z,17.50
2017-10-21T01:55:17.077Z,16.00
2017-10-21T01:57:44.664Z,15.50
2017-10-21T02:00:12.272Z,16.40
2017-10-21T02:02:39.886Z,15.20
2017-10-21T02:05:07.486Z,16.60
2017-10-21T02:07:35.113Z,16.40
2017-10-21T02:10:03.006Z,15.33
2017-10-21T02:12:30.597Z,15.70
2017-10-21T02:14:58.226Z,15.43
2017-10-21T02:17:25.853Z,14.57
2017-10-21T02:19:53.473Z,15.10
2017-10-21T02:22:21.066Z,15.90
2017-10-21T02:24:48.677Z,14.93
2017-10-21T02:27:16.293Z,15.03
2017-10-21T02:29:44.202Z,14.60
2017-10-21T02:32:11.836Z,14.37
2017-10-21T02:34:39.428Z,14.47
2017-10-21T02:37:07.010Z,14.60
2017-10-21T02:39:34.625Z,14.77
2017-10-21T02:42:02.229Z,14.93
2017-10-21T02:44:29.877Z,14.17
2017-10-21T02:46:57.466Z,13.87
2017-10-21T02:49:25.043Z,14.03
2017-10-21T02:51:52.660Z,13.80
2017-10-21T02:54:20.245Z,13.33
2017-10-21T02:56:48.089Z,13.60
2017-10-21T02:59:15.710Z,13.03
2017-10-21T03:01:43.315Z,13.43
2017-10-21T03:04:10.929Z,13.30
2017-10-21T03:06:38.548Z,12.93
2017-10-21T03:09:06.124Z,13.20
2017-10-21T03:11:34.072Z,12.70
2017-10-21T03:14:01.662Z,12.83
2017-10-21T03:16:29.248Z,13.33
2017-10-21T03:18:56.873Z,12.80
2017-10-21T03:21:24.721Z,12.47
2017-10-21T03:23:52.341Z,12.20
2017-10-21T03:26:20.250Z,12.40
2017-10-21T03:28:48.216Z,12.00
2017-10-21T03:31:15.836Z,12.43
2017-10-21T03:33:43.422Z,12.33
2017-10-21T03:36:11.048Z,12.23
2017-10-21T03:38:38.654Z,12.33
2017-10-21T03:41:06.261Z,12.13
2017-10-21T03:43:33.875Z,11.70
2017-10-21T03:46:01.761Z,11.90
2017-10-21T03:48:29.381Z,11.97
2017-10-21T03:50:56.973Z,11.20
2017-10-21T03:53:24.561Z,11.40
2017-10-21T03:55:52.179Z,11.87
2017-10-21T03:58:20.051Z,11.53
2017-10-21T04:00:47.679Z,10.97
2017-10-21T04:03:15.605Z,12.10
2017-10-21T04:05:43.213Z,10.87
2017-10-21T04:08:10.836Z,11.00
2017-10-21T04:10:38.422Z,10.80
2017-10-21T04:13:06.048Z,11.00
2017-10-21T04:15:33.634Z,11.27
2017-10-21T04:18:01.220Z,11.00
2017-10-21T04:20:28.870Z,11.50
2017-10-21T04:22:56.458Z,10.57
2017-10-21T04:25:24.089Z,11.43
2017-10-21T04:27:51.686Z,10.70
2017-10-21T04:30:19.311Z,11.07
2017-10-21T04:32:46.920Z,10.80
2017-10-21T04:35:14.515Z,10.50
2017-10-21T04:37:42.165Z,10.87
2017-10-21T04:40:09.747Z,11.53
2017-10-21T04:42:37.600Z,11.27
2017-10-21T04:45:05.205Z,9.97
2017-10-21T04:47:32.806Z,10.97
2017-10-21T04:50:00.428Z,11.10
2017-10-21T04:52:28.023Z,10.90
2017-10-21T04:54:55.618Z,10.27
2017-10-21T04:57:23.236Z,11.27
2017-10-21T04:59:50.833Z,11.07
2017-10-21T05:02:18.463Z,10.43
2017-10-21T05:04:46.076Z,10.43
2017-10-21T05:07:13.924Z,10.90
2017-10-21T05:09:41.536Z,10.37
2017-10-21T05:12:09.137Z,10.43
2017-10-21T05:14:36.772Z,11.23
2017-10-21T05:17:04.684Z,11.10
2017-10-21T05:19:32.277Z,10.47
2017-10-21T05:22:00.208Z,10.60
2017-10-21T05:24:27.798Z,10.73
2017-10-21T05:26:55.421Z,10.70
2017-10-21T05:29:23.020Z,10.50
2017-10-21T05:31:50.605Z,10.77
2017-10-21T05:34:18.233Z,10.03
2017-10-21T05:36:45.820Z,10.53
2017-10-21T05:39:13.438Z,11.17
2017-10-21T05:41:41.309Z,10.23
2017-10-21T05:44:08.901Z,10.20
2017-10-21T05:46:36.846Z,10.20
2017-10-21T05:49:04.432Z,10.33
2017-10-21T05:51:32.372Z,10.20
2017-10-21T05:53:59.961Z,10.90
2017-10-21T05:56:28.726Z,9.87
2017-10-21T05:58:56.331Z,10.27
2017-10-21T06:01:23.924Z,10.47
2017-10-21T06:03:51.557Z,10.50
2017-10-21T06:06:19.149Z,10.20
2017-10-21T06:08:46.739Z,10.33
2017-10-21T06:11:14.376Z,10.40
2017-10-21T06:13:41.978Z,10.30
2017-10-21T06:16:09.639Z,10.50
2017-10-21T06:18:37.249Z,10.50
2017-10-21T06:21:04.951Z,10.00
2017-10-21T06:23:32.573Z,10.60
2017-10-21T06:26:00.176Z,10.27
2017-10-21T06:28:27.825Z,10.33
2017-10-21T06:30:55.413Z,10.33
2017-10-21T06:33:22.989Z,9.83
2017-10-21T06:35:50.652Z,10.47
2017-10-21T06:38:18.264Z,10.80
2017-10-21T06:40:45.896Z,10.60
2017-10-21T06:43:13.720Z,9.60
2017-10-21T06:45:41.316Z,10.97
2017-10-21T06:48:09.341Z,10.20
2017-10-21T06:50:36.936Z,10.20
2017-10-21T06:53:04.574Z,9.90
2017-10-21T06:55:32.157Z,9.83
2017-10-21T06:57:59.763Z,10.30
2017-10-21T07:00:27.380Z,10.17
2017-10-21T07:02:54.969Z,9.80
2017-10-21T07:05:22.582Z,10.37
2017-10-21T07:07:50.169Z,10.70
2017-10-21T07:10:17.806Z,10.50
2017-10-21T07:12:45.398Z,10.87
2017-10-21T07:15:13.002Z,10.37
2017-10-21T07:17:40.890Z,10.17
2017-10-21T07:20:08.475Z,10.60
2017-10-21T07:22:36.102Z,9.93
2017-10-21T07:25:03.704Z,10.10
2017-10-21T07:27:31.296Z,10.27
2017-10-21T07:29:58.906Z,9.77
2017-10-21T07:32:26.499Z,10.50
2017-10-21T07:34:54.125Z,10.10
2017-10-21T07:37:21.747Z,10.20
2017-10-21T07:39:49.349Z,10.60
2017-10-21T07:42:17.212Z,10.10
2017-10-21T07:44:44.801Z,10.07
2017-10-21T07:47:12.423Z,10.70
2017-10-21T07:49:40.023Z,10.30
2017-10-21T07:52:07.604Z,9.93
2017-10-21T07:54:35.532Z,10.17
2017-10-21T07:57:03.141Z,10.57
2017-10-21T07:59:30.779Z,10.23
2017-10-21T08:01:58.617Z,10.37
2017-10-21T08:04:26.217Z,10.90
2017-10-21T08:06:53.845Z,10.30
2017-10-21T08:09:21.439Z,9.77
2017-10-21T08:11:49.074Z,10.67
2017-10-21T08:14:16.680Z,9.97
2017-10-21T08:16:44.275Z,11.37
2017-10-21T08:19:12.159Z,10.03
2017-10-21T08:21:39.736Z,9.90
2017-10-21T08:24:07.357Z,10.03
2017-10-21T08:26:34.977Z,10.37
2017-10-21T08:29:02.613Z,10.27
2017-10-21T08:31:30.971Z,11.03
2017-10-21T08:33:58.566Z,10.40
2017-10-21T08:36:26.196Z,9.90
2017-10-21T08:38:53.784Z,10.50
2017-10-21T08:41:21.381Z,10.43
2017-10-21T08:43:48.990Z,9.90
2017-10-21T08:46:16.580Z,10.40
2017-10-21T08:48:44.194Z,9.83
2017-10-21T08:51:11.798Z,11.10
2017-10-21T08:53:39.385Z,10.20
2017-10-21T08:56:07.841Z,10.80
2017-10-21T08:58:35.426Z,10.33
2017-10-21T09:01:03.062Z,10.77
2017-10-21T09:03:30.667Z,10.17
2017-10-21T09:05:58.264Z,10.57
2017-10-21T09:08:25.874Z,10.27
2017-10-21T09:10:53.481Z,10.70
2017-10-21T09:13:21.105Z,10.20
2017-10-21T09:15:48.734Z,10.50
2017-10-21T09:18:16.320Z,10.43
2017-10-21T09:20:43.946Z,10.40
2017-10-21T09:23:11.565Z,10.70
2017-10-21T09:25:39.197Z,10.60
2017-10-21T09:28:06.791Z,10.07
2017-10-21T09:30:34.403Z,10.33
2017-10-21T09:33:02.051Z,10.60
2017-10-21T09:35:29.657Z,10.30
2017-10-21T09:37:57.258Z,10.90
2017-10-21T09:40:25.021Z,11.60
2017-10-21T09:42:52.917Z,10.43
2017-10-21T09:45:20.506Z,10.33
2017-10-21T09:47:48.413Z,9.90
2017-10-21T09:50:16.760Z,10.50
2017-10-21T09:52:44.378Z,10.30
2017-10-21T09:55:12.047Z,10.23
2017-10-21T09:57:39.646Z,10.87
2017-10-21T10:00:07.266Z,10.60
2017-10-21T10:02:34.889Z,10.47
2017-10-21T10:05:02.488Z,11.03
2017-10-21T10:07:30.133Z,10.20
2017-10-21T10:09:57.734Z,10.40
2017-10-21T10:12:25.330Z,10.13
2017-10-21T10:14:52.964Z,10.90
2017-10-21T10:17:20.566Z,11.10
2017-10-21T10:19:48.210Z,10.47
2017-10-21T10:22:16.133Z,10.60
2017-10-21T10:24:43.771Z,10.10
2017-10-21T10:27:11.420Z,10.57
2017-10-21T10:29:39.014Z,10.87
2017-10-21T10:32:06.657Z,10.80
2017-10-21T10:34:34.256Z,10.70
2017-10-21T10:37:01.861Z,11.17
2017-10-21T10:39:29.487Z,10.30
2017-10-21T10:41:57.078Z,10.10
2017-10-21T10:44:25.062Z,11.17
2017-10-21T10:46:52.660Z,10.50
2017-10-21T10:49:20.252Z,10.30
2017-10-21T10:51:47.861Z,11.30
2017-10-21T10:54:15.713Z,10.37
2017-10-21T10:56:43.355Z,10.40
2017-10-21T10:59:10.945Z,11.53
2017-10-21T11:01:38.541Z,11.20
2017-10-21T11:04:06.175Z,11.30
2017-10-21T11:06:33.772Z,10.40
2017-10-21T11:09:01.407Z,11.40
2017-10-21T11:11:29.394Z,10.70
2017-10-21T11:13:57.019Z,11.60
2017-10-21T11:16:24.647Z,10.80
2017-10-21T11:18:52.590Z,10.83
2017-10-21T11:21:20.217Z,11.10
2017-10-21T11:23:47.818Z,10.77
2017-10-21T11:26:15.788Z,11.17
2017-10-21T11:28:43.401Z,10.20
2017-10-21T11:31:11.317Z,10.87
2017-10-21T11:33:38.963Z,10.60
2017-10-21T11:36:06.637Z,11.50
2017-10-21T11:38:34.264Z,11.57
2017-10-21T11:41:01.870Z,11.80
2017-10-21T11:43:29.469Z,11.33
2017-10-21T11:45:57.089Z,10.63
2017-10-21T11:48:24.684Z,11.40
2017-10-21T11:50:52.283Z,11.00
2017-10-21T11:53:19.894Z,10.27
2017-10-21T11:55:47.479Z,11.20
2017-10-21T11:58:15.419Z,11.50
2017-10-21T12:00:43.270Z,10.83
2017-10-21T12:03:10.849Z,10.80
2017-10-21T12:05:38.464Z,11.10
2017-10-21T12:08:06.068Z,11.40
2017-10-21T12:10:33.702Z,11.50
2017-10-21T12:13:01.302Z,10.57
2017-10-21T12:15:28.894Z,11.37
2017-10-21T12:17:56.520Z,10.70
2017-10-21T12:20:24.114Z,10.80
2017-10-21T12:22:51.769Z,11.30
2017-10-21T12:25:19.362Z,12.30
2017-10-21T12:27:46.956Z,11.97
2017-10-21T12:30:14.580Z,11.40
2017-10-21T12:32:42.160Z,11.37
2017-10-21T12:35:10.039Z,11.13
2017-10-21T12:37:37.661Z,11.83
2017-10-21T12:40:05.290Z,12.87
2017-10-21T12:42:32.897Z,12.33
2017-10-21T12:45:00.501Z,11.30
2017-10-21T12:47:28.129Z,11.57
2017-10-21T12:49:55.736Z,11.70
2017-10-21T12:52:23.582Z,12.30
2017-10-21T12:54:51.206Z,12.50
2017-10-21T12:57:18.805Z,13.07
2017-10-21T12:59:46.421Z,12.23
2017-10-21T13:02:14.014Z,12.17
2017-10-21T13:04:41.894Z,13.90
2017-10-21T13:07:09.506Z,15.17
2017-10-21T13:09:37.426Z,12.80
2017-10-21T13:12:05.055Z,12.70
2017-10-21T13:14:32.676Z,12.33
2017-10-21T13:17:00.514Z,10.97
2017-10-21T13:19:28.136Z,14.80
2017-10-21T13:21:55.733Z,13.00
2017-10-21T13:24:23.413Z,12.97
2017-10-21T13:26:51.001Z,12.20
2017-10-21T13:29:18.736Z,12.20
2017-10-21T13:31:46.354Z,12.00
2017-10-21T13:34:13.945Z,15.03
2017-10-21T13:36:41.582Z,13.00
2017-10-21T13:39:09.177Z,12.40
2017-10-21T13:41:36.764Z,11.20
2017-10-21T13:44:04.372Z,11.30
2017-10-21T13:46:31.973Z,12.60
2017-10-21T13:48:59.671Z,11.80
2017-10-21T13:51:27.283Z,12.10
2017-10-21T13:53:54.872Z,12.33
2017-10-21T13:56:22.489Z,12.00
2017-10-21T13:58:50.077Z,11.73
2017-10-21T14:01:17.697Z,12.40
2017-10-21T14:03:45.341Z,11.53
2017-10-21T14:06:12.937Z,11.37
2017-10-21T14:08:40.556Z,11.47
2017-10-21T14:11:08.177Z,10.83
2017-10-21T14:13:36.257Z,11.50
2017-10-21T14:16:03.845Z,18.57
2017-10-21T14:18:31.428Z,14.77
2017-10-21T14:20:59.049Z,11.00
2017-10-21T14:23:26.648Z,14.27
2017-10-21T14:25:54.569Z,12.00
2017-10-21T14:28:22.157Z,12.00
2017-10-21T14:30:49.753Z,11.53
2017-10-21T14:33:17.424Z,12.50
2017-10-21T14:35:45.246Z,12.00
2017-10-21T14:38:12.871Z,12.00
2017-10-21T14:40:40.469Z,11.10
2017-10-21T14:43:08.102Z,11.40
2017-10-21T14:45:35.982Z,11.77
2017-10-21T14:48:03.577Z,10.70
2017-10-21T14:50:31.241Z,11.27
2017-10-21T14:52:59.168Z,12.80
2017-10-21T14:55:26.757Z,10.87
2017-10-21T14:57:54.369Z,12.00
2017-10-21T15:00:21.980Z,12.10
2017-10-21T15:02:50.035Z,11.40
2017-10-21T15:05:17.898Z,11.70
2017-10-21T15:07:45.502Z,11.97
2017-10-21T15:10:13.125Z,12.10
2017-10-21T15:12:40.741Z,14.20
2017-10-21T15:15:08.383Z,13.13
2017-10-21T15:17:35.979Z,11.23
2017-10-21T15:20:03.891Z,11.67
2017-10-21T15:22:31.643Z,11.60
2017-10-21T15:24:59.253Z,12.40
2017-10-21T15:27:27.174Z,11.33
2017-10-21T15:29:54.756Z,11.30
2017-10-21T15:32:22.588Z,10.80
2017-10-21T15:34:50.292Z,12.67
2017-10-21T15:37:17.903Z,11.13
2017-10-21T15:39:45.559Z,11.20
2017-10-21T15:42:13.190Z,12.87
2017-10-21T15:44:40.859Z,11.87
2017-10-21T15:47:08.544Z,12.10
2017-10-21T15:49:36.130Z,11.17
2017-10-21T15:52:03.752Z,13.23
2017-10-21T15:54:31.344Z,12.20
2017-10-21T15:56:58.937Z,12.70
2017-10-21T15:59:26.584Z,20.90
2017-10-21T16:01:54.173Z,19.30
2017-10-21T16:04:21.802Z,13.67
2017-10-21T16:06:49.681Z,12.93
2017-10-21T16:09:17.350Z,12.73
2017-10-21T16:11:44.978Z,13.37
2017-10-21T16:14:12.816Z,12.53
2017-10-21T16:16:40.481Z,13.23
2017-10-21T16:19:08.071Z,13.03
2017-10-21T16:21:35.664Z,14.00
2017-10-21T16:24:03.280Z,14.43
2017-10-21T16:26:31.190Z,13.27
2017-10-21T16:28:58.802Z,13.20
2017-10-21T16:31:26.421Z,14.57
2017-10-21T16:33:54.046Z,13.40
2017-10-21T16:36:21.674Z,14.50
2017-10-21T16:38:49.258Z,14.57
2017-10-21T16:41:16.853Z,14.97
2017-10-21T16:43:44.481Z,15.73
2017-10-21T16:46:12.078Z,15.67
2017-10-21T16:48:39.728Z,15.90
2017-10-21T16:51:07.412Z,15.40
2017-10-21T16:56:08.911Z,16.60
2017-10-21T16:58:36.597Z,15.00
2017-10-21T17:01:04.179Z,14.60
2017-10-21T17:03:31.834Z,15.40
2017-10-21T17:05:59.437Z,16.17
2017-10-21T17:08:27.030Z,14.23
2017-10-21T17:10:54.678Z,14.70
2017-10-21T17:13:22.274Z,19.40
2017-10-21T17:15:49.898Z,14.60
2017-10-21T17:18:17.523Z,14.43
2017-10-21T17:20:45.104Z,14.77
2017-10-21T17:23:12.738Z,14.30
2017-10-21T17:25:40.351Z,14.23
2017-10-21T17:28:07.977Z,14.37
2017-10-21T17:30:35.639Z,14.07
2017-10-21T17:33:03.228Z,14.53
2017-10-21T17:35:30.864Z,15.90
2017-10-21T17:37:58.469Z,13.73
2017-10-21T17:40:26.129Z,15.67
2017-10-21T17:42:53.717Z,15.77
2017-10-21T17:45:21.310Z,16.80
2017-10-21T17:47:48.926Z,15.47
2017-10-21T17:50:16.549Z,17.47
2017-10-21T17:52:44.521Z,17.50
2017-10-21T17:55:12.109Z,17.20
2017-10-21T17:57:39.882Z,18.60
2017-10-21T18:00:07.522Z,17.80
2017-10-21T18:02:35.129Z,18.40
2017-10-21T18:05:02.770Z,18.47
2017-10-21T18:07:30.392Z,19.77
2017-10-21T18:09:58.004Z,17.97
2017-10-21T18:12:25.633Z,18.40
2017-10-21T18:14:53.229Z,18.80
2017-10-21T18:17:20.864Z,18.10
2017-10-21T18:19:48.469Z,19.00
2017-10-21T18:22:16.057Z,20.70
2017-10-21T18:24:43.680Z,18.03
2017-10-21T18:27:11.285Z,17.90
2017-10-21T18:29:39.262Z,19.13
2017-10-21T18:32:06.849Z,18.03
2017-10-21T18:34:34.441Z,18.30
2017-10-21T18:37:02.088Z,28.17
2017-10-21T18:39:29.682Z,28.50
2017-10-21T18:41:57.310Z,18.93
2017-10-21T18:44:25.136Z,18.00
2017-10-21T18:46:52.766Z,17.70
2017-10-21T18:49:20.396Z,16.70
2017-10-21T18:51:48.029Z,17.30
2017-10-21T18:54:15.670Z,16.43
2017-10-21T18:56:43.276Z,17.50
2017-10-21T18:59:10.883Z,17.30
2017-10-21T19:01:38.506Z,17.40
2017-10-21T19:04:06.098Z,16.67
2017-10-21T19:06:33.733Z,17.90
2017-10-21T19:09:01.333Z,17.77
2017-10-21T19:11:29.153Z,17.93
2017-10-21T19:13:56.764Z,17.57
2017-10-21T19:16:24.349Z,17.10
2017-10-21T19:18:52.315Z,16.60
2017-10-21T19:21:19.900Z,17.00
2017-10-21T19:23:47.476Z,17.23
2017-10-21T19:26:15.104Z,19.10
2017-10-21T19:28:42.689Z,16.67
2017-10-21T19:31:10.316Z,17.60
2017-10-21T19:33:37.919Z,17.93
2017-10-21T19:36:05.509Z,16.90
2017-10-21T19:38:33.212Z,18.03
2017-10-21T19:41:00.807Z,18.50
2017-10-21T19:43:28.437Z,18.57
2017-10-21T19:45:56.303Z,17.40
2017-10-21T19:48:23.889Z,18.00
2017-10-21T19:50:51.503Z,18.87
2017-10-21T19:53:19.096Z,17.50
2017-10-21T19:55:46.759Z,19.33
2017-10-21T19:58:14.360Z,17.23
2017-10-21T20:00:42.576Z,19.47
2017-10-21T20:03:10.196Z,33.07
2017-10-21T20:05:38.087Z,19.97
2017-10-21T20:08:05.758Z,23.10
2017-10-21T20:10:33.346Z,19.13
2017-10-21T20:13:00.943Z,18.30
2017-10-21T20:15:28.562Z,19.50
2017-10-21T20:17:56.429Z,17.80
2017-10-21T20:20:24.312Z,17.37
2017-10-21T20:22:51.899Z,18.27
2017-10-21T20:25:19.725Z,17.90
2017-10-21T20:27:47.337Z,18.60
2017-10-21T20:30:14.922Z,19.00
2017-10-21T20:32:42.555Z,19.80
2017-10-21T20:35:10.486Z,19.03
2017-10-21T20:37:38.082Z,20.00
2017-10-21T20:40:05.731Z,18.60
2017-10-21T20:42:33.318Z,17.57
2017-10-21T20:45:00.953Z,17.60
2017-10-21T20:47:28.542Z,17.73
2017-10-21T20:49:56.172Z,18.70
2017-10-21T20:52:24.016Z,18.30
2017-10-21T20:54:51.599Z,17.10
2017-10-21T20:57:19.235Z,17.23
2017-10-21T20:59:47.117Z,17.00
2017-10-21T21:02:15.085Z,17.20
2017-10-21T21:04:42.953Z,16.83
2017-10-21T21:07:10.546Z,17.33
2017-10-21T21:09:38.169Z,18.03
2017-10-21T21:12:05.751Z,16.70
2017-10-21T21:14:33.332Z,16.57
2017-10-21T21:17:00.948Z,16.10
2017-10-21T21:19:28.529Z,16.10
2017-10-21T21:21:56.173Z,16.10
2017-10-21T21:24:23.764Z,15.23
2017-10-21T21:26:51.359Z,15.77
2017-10-21T21:29:18.969Z,16.37
2017-10-21T21:31:46.559Z,15.30
2017-10-21T21:34:14.217Z,16.50
2017-10-21T21:36:42.165Z,16.40
2017-10-21T21:39:10.036Z,17.30
2017-10-21T21:41:37.646Z,16.67
2017-10-21T21:44:05.232Z,17.07
2017-10-21T21:46:32.844Z,17.63
2017-10-21T21:49:00.436Z,17.20
2017-10-21T21:51:28.345Z,17.10
2017-10-21T21:53:55.965Z,17.23
2017-10-21T21:56:23.558Z,18.00
2017-10-21T21:58:51.184Z,17.90
2017-10-21T22:01:18.776Z,17.70
2017-10-21T22:03:46.661Z,18.13
2017-10-21T22:06:14.270Z,17.23
2017-10-21T22:08:41.854Z,17.80
2017-10-21T22:11:09.495Z,16.97
2017-10-21T22:13:37.102Z,16.87
2017-10-21T22:16:04.700Z,17.83
2017-10-21T22:18:32.308Z,17.27
2017-10-21T22:21:00.197Z,16.70
2017-10-21T22:23:28.124Z,16.00
2017-10-21T22:25:55.772Z,18.37
2017-10-21T22:28:23.353Z,17.67
2017-10-21T22:30:50.969Z,16.20
2017-10-21T22:33:18.557Z,17.50
2017-10-21T22:35:46.205Z,18.70
2017-10-21T22:38:13.842Z,15.20
2017-10-21T22:40:41.426Z,15.90
2017-10-21T22:43:09.045Z,17.20
2017-10-21T22:45:36.936Z,17.50
2017-10-21T22:48:04.563Z,17.40
2017-10-21T22:50:32.201Z,16.17
2017-10-21T22:52:59.782Z,17.60
2017-10-21T22:55:27.400Z,16.57
2017-10-21T22:57:56.075Z,28.70
2017-10-21T23:00:23.714Z,26.90
2017-10-21T23:02:51.296Z,22.80
2017-10-21T23:05:18.876Z,30.17
2017-10-21T23:07:46.496Z,19.07
2017-10-21T23:10:14.076Z,17.90
2017-10-21T23:12:41.707Z,17.47
2017-10-21T23:15:09.297Z,17.57
2017-10-21T23:17:36.886Z,17.47
2017-10-21T23:20:04.836Z,17.30
2017-10-21T23:22:32.440Z,17.63
2017-10-21T23:25:00.364Z,16.33
2017-10-21T23:27:27.953Z,17.20
2017-10-21T23:29:55.895Z,16.27
2017-10-21T23:32:23.512Z,17.33
2017-10-21T23:34:51.420Z,17.67
2017-10-21T23:37:19.064Z,18.60
2017-10-21T23:39:46.658Z,16.80
2017-10-21T23:42:14.481Z,17.20
2017-10-21T23:44:42.108Z,17.23
2017-10-21T23:47:09.692Z,18.33
2017-10-21T23:49:37.277Z,17.50
2017-10-21T23:52:04.897Z,18.70
2017-10-21T23:54:32.506Z,17.60
2017-10-21T23:57:00.334Z,17.33
2017-10-21T23:59:27.957Z,19.00
